createdAt,value
2023-01-20T00:00:45.526Z,11.73
2023-01-20T00:01:48.423Z,11.35
2023-01-20T00:02:51.433Z,11.77
2023-01-20T00:03:55.312Z,12.75
2023-01-20T00:04:57.074Z,13.30
2023-01-20T00:05:59.603Z,12.23
2023-01-20T00:07:01.198Z,10.82
2023-01-20T00:08:03.751Z,10.95
2023-01-20T00:09:05.709Z,12.00
2023-01-20T00:10:09.653Z,10.80
2023-01-20T00:11:13.094Z,11.90
2023-01-20T00:12:15.592Z,12.38
2023-01-20T00:13:17.210Z,11.70
2023-01-20T00:14:23.666Z,11.55
2023-01-20T00:15:25.470Z,12.18
2023-01-20T00:16:29.223Z,11.70
2023-01-20T00:17:33.241Z,11.25
2023-01-20T00:18:37.928Z,11.40
2023-01-20T00:19:39.522Z,11.27
2023-01-20T00:20:42.288Z,11.57
2023-01-20T00:21:44.283Z,11.68
2023-01-20T00:22:46.977Z,11.05
2023-01-20T00:23:49.247Z,12.00
2023-01-20T00:24:51.720Z,11.15
2023-01-20T00:25:53.229Z,11.27
2023-01-20T00:26:56.079Z,11.73
2023-01-20T00:27:57.812Z,11.65
2023-01-20T00:29:00.345Z,11.13
2023-01-20T00:30:02.030Z,11.02
2023-01-20T00:31:16.384Z,11.07
2023-01-20T00:32:18.924Z,10.98
2023-01-20T00:33:20.471Z,11.20
2023-01-20T00:34:24.378Z,10.90
2023-01-20T00:35:27.144Z,11.65
2023-01-20T00:36:32.398Z,11.38
2023-01-20T00:37:34.032Z,12.30
2023-01-20T00:38:36.667Z,11.27
2023-01-20T00:39:39.295Z,11.93
2023-01-20T00:40:40.995Z,11.93
2023-01-20T00:41:43.487Z,11.48
2023-01-20T00:42:45.247Z,11.10
2023-01-20T00:43:47.974Z,10.68
2023-01-20T00:44:49.523Z,11.27
2023-01-20T00:45:52.141Z,10.52
2023-01-20T00:46:54.754Z,11.18
2023-01-20T00:47:56.370Z,10.90
2023-01-20T00:48:59.097Z,10.70
2023-01-20T00:50:02.056Z,10.77
2023-01-20T00:51:06.020Z,10.80
2023-01-20T00:52:08.569Z,11.75
2023-01-20T00:53:10.148Z,10.70
2023-01-20T00:54:12.674Z,11.27
2023-01-20T00:55:14.795Z,11.10
2023-01-20T00:56:17.537Z,11.02
2023-01-20T00:57:19.090Z,11.35
2023-01-20T00:58:22.532Z,12.10
2023-01-20T00:59:25.251Z,10.68
2023-01-20T01:00:27.811Z,11.43
2023-01-20T01:01:29.615Z,10.82
2023-01-20T01:02:32.597Z,11.25
2023-01-20T01:03:34.496Z,11.27
2023-01-20T01:04:37.043Z,11.73
2023-01-20T01:05:40.121Z,11.80
2023-01-20T01:06:42.706Z,11.25
2023-01-20T01:07:44.341Z,12.18
2023-01-20T01:08:47.018Z,10.68
2023-01-20T01:09:48.610Z,10.85
2023-01-20T01:10:51.143Z,10.60
2023-01-20T01:11:53.020Z,10.82
2023-01-20T01:12:55.714Z,11.27
2023-01-20T01:13:58.247Z,11.32
2023-01-20T01:14:59.786Z,11.27
2023-01-20T01:16:02.436Z,11.20
2023-01-20T01:17:04.996Z,12.40
2023-01-20T01:18:06.703Z,11.48
2023-01-20T01:19:09.713Z,11.00
2023-01-20T01:20:12.437Z,11.20
2023-01-20T01:21:18.169Z,10.80
2023-01-20T01:22:19.842Z,10.20
2023-01-20T01:23:25.314Z,11.25
2023-01-20T01:24:26.984Z,11.20
2023-01-20T01:25:29.458Z,10.43
2023-01-20T01:26:31.064Z,10.70
2023-01-20T01:27:35.682Z,11.38
2023-01-20T01:28:37.268Z,11.07
2023-01-20T01:29:40.287Z,10.85
2023-01-20T01:30:42.046Z,11.25
2023-01-20T01:31:44.706Z,11.38
2023-01-20T01:32:47.242Z,11.23
2023-01-20T01:33:50.151Z,10.48
2023-01-20T01:34:51.778Z,11.35
2023-01-20T01:35:57.388Z,11.10
2023-01-20T01:37:00.508Z,11.98
2023-01-20T01:38:03.215Z,11.35
2023-01-20T01:39:04.881Z,11.10
2023-01-20T01:40:11.915Z,11.52
2023-01-20T01:41:18.729Z,11.80
2023-01-20T01:42:25.302Z,10.88
2023-01-20T01:43:29.113Z,11.32
2023-01-20T01:44:39.249Z,12.05
2023-01-20T01:45:40.853Z,11.63
2023-01-20T01:46:44.191Z,10.88
2023-01-20T01:47:49.263Z,11.75
2023-01-20T01:48:52.036Z,10.75
2023-01-20T01:49:53.657Z,10.93
2023-01-20T01:50:59.614Z,11.50
2023-01-20T01:52:09.061Z,12.27
2023-01-20T01:53:11.939Z,11.70
2023-01-20T01:54:17.525Z,12.02
2023-01-20T01:55:23.378Z,11.07
2023-01-20T01:56:28.390Z,11.95
2023-01-20T01:57:31.953Z,11.30
2023-01-20T01:58:38.126Z,10.80
2023-01-20T01:59:39.759Z,11.15
2023-01-20T02:00:43.300Z,11.25
2023-01-20T02:01:49.577Z,11.13
2023-01-20T02:02:52.887Z,12.07
2023-01-20T02:03:58.844Z,12.13
2023-01-20T02:05:01.376Z,11.60
2023-01-20T02:06:04.100Z,12.07
2023-01-20T02:07:12.689Z,12.07
2023-01-20T02:08:14.318Z,12.10
2023-01-20T02:09:16.869Z,11.90
2023-01-20T02:10:18.989Z,11.68
2023-01-20T02:11:22.058Z,11.40
2023-01-20T02:12:23.896Z,11.88
2023-01-20T02:13:26.627Z,11.32
2023-01-20T02:14:33.525Z,12.52
2023-01-20T02:15:43.363Z,11.13
2023-01-20T02:17:00.774Z,8.90
2023-01-20T02:18:20.438Z,12.18
2023-01-20T02:19:54.019Z,11.05
2023-01-20T02:21:18.345Z,11.43
2023-01-20T02:22:36.616Z,12.07
2023-01-20T02:23:58.785Z,11.95
2023-01-20T02:25:26.666Z,11.82
2023-01-20T02:26:48.186Z,11.82
2023-01-20T02:28:28.156Z,12.18
2023-01-20T02:30:08.727Z,11.40
2023-01-20T02:31:37.977Z,8.55
2023-01-20T02:32:50.999Z,11.98
2023-01-20T02:34:00.794Z,11.45
2023-01-20T02:35:11.097Z,11.65
2023-01-20T02:36:19.833Z,9.05
2023-01-20T02:37:26.371Z,11.30
2023-01-20T02:38:36.195Z,11.10
2023-01-20T02:39:44.338Z,8.73
2023-01-20T02:40:56.690Z,12.07
2023-01-20T02:42:02.309Z,11.68
2023-01-20T02:43:11.673Z,11.85
2023-01-20T02:44:19.974Z,11.15
2023-01-20T02:45:26.456Z,11.35
2023-01-20T02:46:38.314Z,11.25
2023-01-20T02:47:51.937Z,11.57
2023-01-20T02:49:00.713Z,10.80
2023-01-20T02:50:11.244Z,8.50
2023-01-20T02:51:18.515Z,11.82
2023-01-20T02:52:24.005Z,11.38
2023-01-20T02:53:32.833Z,11.93
2023-01-20T02:54:38.464Z,11.43
2023-01-20T02:55:44.174Z,11.65
2023-01-20T02:56:49.280Z,11.15
2023-01-20T02:57:56.385Z,11.65
2023-01-20T02:59:02.590Z,11.77
2023-01-20T03:00:09.767Z,11.77
2023-01-20T03:01:18.630Z,11.60
2023-01-20T03:02:23.767Z,11.10
2023-01-20T03:03:30.612Z,10.98
2023-01-20T03:04:37.452Z,11.20
2023-01-20T03:05:45.165Z,11.68
2023-01-20T03:06:50.936Z,10.75
2023-01-20T03:07:53.956Z,11.23
2023-01-20T03:08:59.739Z,12.15
2023-01-20T03:10:06.179Z,11.27
2023-01-20T03:11:10.313Z,11.40
2023-01-20T03:12:18.541Z,10.32
2023-01-20T03:13:27.024Z,11.77
2023-01-20T03:14:28.869Z,11.05
2023-01-20T03:15:38.239Z,11.68
2023-01-20T03:16:43.758Z,11.88
2023-01-20T03:17:45.312Z,11.55
2023-01-20T03:18:49.732Z,10.98
2023-01-20T03:19:51.397Z,10.98
2023-01-20T03:20:53.921Z,11.45
2023-01-20T03:21:57.827Z,11.13
2023-01-20T03:23:00.374Z,12.27
2023-01-20T03:24:05.426Z,11.25
2023-01-20T03:25:08.790Z,10.88
2023-01-20T03:26:14.394Z,11.40
2023-01-20T03:27:16.151Z,11.20
2023-01-20T03:28:18.696Z,12.40
2023-01-20T03:29:21.456Z,11.52
2023-01-20T03:30:25.478Z,11.52
2023-01-20T03:31:31.856Z,11.68
2023-01-20T03:32:33.824Z,11.55
2023-01-20T03:33:36.722Z,11.98
2023-01-20T03:34:45.040Z,10.77
2023-01-20T03:35:48.021Z,12.35
2023-01-20T03:36:52.025Z,11.52
2023-01-20T03:37:54.755Z,12.18
2023-01-20T03:38:58.173Z,12.00
2023-01-20T03:40:01.763Z,11.13
2023-01-20T03:41:07.242Z,12.23
2023-01-20T03:42:14.122Z,11.77
2023-01-20T03:43:24.226Z,12.15
2023-01-20T03:44:34.768Z,9.73
2023-01-20T03:45:43.127Z,8.85
2023-01-20T03:46:51.771Z,12.52
2023-01-20T03:47:59.080Z,11.90
2023-01-20T03:49:08.582Z,11.95
2023-01-20T03:50:21.642Z,11.57
2023-01-20T03:51:29.068Z,11.57
2023-01-20T03:52:47.800Z,12.15
2023-01-20T03:53:56.648Z,12.02
2023-01-20T03:55:03.217Z,11.20
2023-01-20T03:56:13.151Z,11.55
2023-01-20T03:57:19.693Z,11.93
2023-01-20T03:58:29.837Z,11.98
2023-01-20T03:59:34.428Z,11.38
2023-01-20T04:00:40.756Z,12.27
2023-01-20T04:01:46.145Z,12.02
2023-01-20T04:02:49.576Z,11.40
2023-01-20T04:03:54.034Z,12.15
2023-01-20T04:04:57.927Z,12.43
2023-01-20T04:06:04.119Z,12.20
2023-01-20T04:07:09.245Z,12.75
2023-01-20T04:08:13.917Z,12.50
2023-01-20T04:09:22.991Z,11.80
2023-01-20T04:10:27.628Z,12.52
2023-01-20T04:11:30.415Z,11.80
2023-01-20T04:12:32.353Z,12.45
2023-01-20T04:13:36.860Z,11.88
2023-01-20T04:14:38.515Z,12.75
2023-01-20T04:15:45.591Z,13.60
2023-01-20T04:16:52.119Z,12.25
2023-01-20T04:17:56.787Z,12.05
2023-01-20T04:18:58.365Z,12.73
2023-01-20T04:20:03.537Z,12.65
2023-01-20T04:21:07.219Z,12.25
2023-01-20T04:22:16.873Z,13.00
2023-01-20T04:23:24.470Z,11.68
2023-01-20T04:24:31.914Z,12.38
2023-01-20T04:25:34.707Z,12.75
2023-01-20T04:26:37.410Z,12.13
2023-01-20T04:27:39.100Z,11.68
2023-01-20T04:28:41.765Z,12.60
2023-01-20T04:29:43.492Z,12.38
2023-01-20T04:30:46.152Z,13.13
2023-01-20T04:31:48.188Z,11.95
2023-01-20T04:32:51.125Z,12.48
2023-01-20T04:33:52.776Z,13.32
2023-01-20T04:34:55.461Z,13.27
2023-01-20T04:35:57.098Z,13.32
2023-01-20T04:37:03.805Z,12.30
2023-01-20T04:38:06.704Z,13.07
2023-01-20T04:39:09.645Z,13.45
2023-01-20T04:40:12.037Z,13.05
2023-01-20T04:41:14.684Z,12.38
2023-01-20T04:42:16.284Z,13.20
2023-01-20T04:43:19.202Z,12.95
2023-01-20T04:44:20.927Z,12.63
2023-01-20T04:45:23.758Z,12.82
2023-01-20T04:46:25.432Z,13.27
2023-01-20T04:47:30.864Z,12.43
2023-01-20T04:48:32.540Z,12.43
2023-01-20T04:49:35.392Z,13.27
2023-01-20T04:50:39.209Z,16.65
2023-01-20T04:51:41.907Z,13.38
2023-01-20T04:52:47.593Z,13.07
2023-01-20T04:53:50.184Z,14.35
2023-01-20T04:54:51.768Z,13.20
2023-01-20T04:55:54.372Z,12.85
2023-01-20T04:56:55.968Z,12.45
2023-01-20T04:57:58.559Z,12.85
2023-01-20T04:59:00.495Z,12.85
2023-01-20T05:00:03.214Z,12.68
2023-01-20T05:01:04.887Z,13.27
2023-01-20T05:02:07.814Z,13.32
2023-01-20T05:03:09.611Z,14.02
2023-01-20T05:04:12.408Z,13.50
2023-01-20T05:05:14.632Z,13.90
2023-01-20T05:06:18.889Z,13.18
2023-01-20T05:07:20.508Z,13.23
2023-01-20T05:08:24.440Z,12.98
2023-01-20T05:09:26.051Z,13.73
2023-01-20T05:10:30.388Z,13.05
2023-01-20T05:11:31.992Z,13.90
2023-01-20T05:12:34.555Z,12.95
2023-01-20T05:13:39.680Z,12.55
2023-01-20T05:14:42.297Z,12.77
2023-01-20T05:15:44.604Z,12.85
2023-01-20T05:16:47.787Z,13.32
2023-01-20T05:17:49.613Z,13.07
2023-01-20T05:18:52.358Z,12.38
2023-01-20T05:19:54.120Z,13.40
2023-01-20T05:20:56.735Z,12.73
2023-01-20T05:21:59.706Z,13.73
2023-01-20T05:23:02.448Z,12.90
2023-01-20T05:24:05.993Z,12.27
2023-01-20T05:25:09.696Z,12.88
2023-01-20T05:26:11.471Z,12.73
2023-01-20T05:27:16.555Z,13.20
2023-01-20T05:28:18.741Z,12.45
2023-01-20T05:29:21.361Z,12.55
2023-01-20T05:30:22.997Z,12.93
2023-01-20T05:31:26.023Z,13.00
2023-01-20T05:32:27.674Z,13.60
2023-01-20T05:33:30.344Z,12.75
2023-01-20T05:34:34.512Z,12.77
2023-01-20T05:35:38.619Z,13.68
2023-01-20T05:36:40.376Z,13.15
2023-01-20T05:37:42.970Z,14.02
2023-01-20T05:38:44.590Z,12.73
2023-01-20T05:39:48.595Z,12.65
2023-01-20T05:40:50.503Z,13.18
2023-01-20T05:41:53.144Z,13.18
2023-01-20T05:42:58.990Z,12.75
2023-01-20T05:44:01.647Z,13.55
2023-01-20T05:45:03.694Z,13.02
2023-01-20T05:46:07.010Z,13.65
2023-01-20T05:47:08.838Z,12.90
2023-01-20T05:48:11.425Z,13.02
2023-01-20T05:49:14.336Z,13.70
2023-01-20T05:50:17.490Z,13.85
2023-01-20T05:51:19.350Z,13.38
2023-01-20T05:52:22.267Z,12.65
2023-01-20T05:53:23.922Z,12.63
2023-01-20T05:54:27.151Z,13.88
2023-01-20T05:55:30.018Z,13.88
2023-01-20T05:56:32.564Z,12.85
2023-01-20T05:57:34.129Z,13.30
2023-01-20T05:58:36.604Z,13.35
2023-01-20T05:59:38.158Z,13.00
2023-01-20T06:00:40.703Z,12.95
2023-01-20T06:01:42.716Z,12.98
2023-01-20T06:02:45.560Z,11.95
2023-01-20T06:03:47.214Z,13.27
2023-01-20T06:04:50.030Z,12.35
2023-01-20T06:05:51.612Z,13.95
2023-01-20T06:06:54.271Z,14.07
2023-01-20T06:07:56.243Z,13.38
2023-01-20T06:08:58.805Z,14.55
2023-01-20T06:10:00.429Z,14.10
2023-01-20T06:11:04.364Z,13.63
2023-01-20T06:12:06.513Z,13.68
2023-01-20T06:13:09.360Z,14.40
2023-01-20T06:14:10.950Z,12.93
2023-01-20T06:15:13.680Z,12.93
2023-01-20T06:16:17.836Z,13.80
2023-01-20T06:17:21.794Z,13.73
2023-01-20T06:18:25.754Z,13.07
2023-01-20T06:19:27.285Z,13.55
2023-01-20T06:20:32.239Z,13.00
2023-01-20T06:21:34.782Z,13.07
2023-01-20T06:22:36.506Z,13.27
2023-01-20T06:23:39.144Z,13.55
2023-01-20T06:24:40.744Z,13.15
2023-01-20T06:25:46.888Z,14.13
2023-01-20T06:26:53.819Z,13.50
2023-01-20T06:27:56.396Z,15.35
2023-01-20T06:28:59.498Z,13.95
2023-01-20T06:30:02.095Z,16.08
2023-01-20T06:31:05.432Z,14.05
2023-01-20T06:32:08.123Z,14.10
2023-01-20T06:33:10.822Z,14.50
2023-01-20T06:34:13.556Z,14.63
2023-01-20T06:35:15.670Z,13.88
2023-01-20T06:36:18.611Z,14.23
2023-01-20T06:37:20.219Z,14.70
2023-01-20T06:38:23.069Z,14.93
2023-01-20T06:39:25.869Z,14.55
2023-01-20T06:40:27.442Z,15.45
2023-01-20T06:41:30.203Z,14.55
2023-01-20T06:42:33.976Z,15.20
2023-01-20T06:43:35.988Z,14.18
2023-01-20T06:44:38.540Z,13.43
2023-01-20T06:45:40.416Z,14.30
2023-01-20T06:46:43.138Z,14.60
2023-01-20T06:47:48.774Z,13.45
2023-01-20T06:48:51.318Z,14.45
2023-01-20T06:49:53.003Z,14.70
2023-01-20T06:51:00.907Z,14.77
2023-01-20T06:52:03.469Z,14.02
2023-01-20T06:53:05.107Z,13.02
2023-01-20T06:54:07.655Z,13.88
2023-01-20T06:55:09.671Z,13.48
2023-01-20T06:56:13.681Z,14.70
2023-01-20T06:57:15.386Z,13.60
2023-01-20T06:58:19.236Z,14.23
2023-01-20T06:59:21.772Z,15.15
2023-01-20T07:00:24.061Z,15.57
2023-01-20T07:01:29.758Z,14.60
2023-01-20T07:02:31.439Z,15.35
2023-01-20T07:03:34.073Z,14.52
2023-01-20T07:04:38.318Z,14.25
2023-01-20T07:05:40.915Z,13.52
2023-01-20T07:06:42.936Z,13.82
2023-01-20T07:07:46.137Z,14.55
2023-01-20T07:08:48.958Z,13.73
2023-01-20T07:09:55.184Z,14.07
2023-01-20T07:10:57.941Z,14.57
2023-01-20T07:12:00.540Z,14.25
2023-01-20T07:13:02.089Z,14.70
2023-01-20T07:14:07.182Z,15.18
2023-01-20T07:15:09.354Z,14.75
2023-01-20T07:16:15.539Z,14.13
2023-01-20T07:17:19.688Z,13.75
2023-01-20T07:18:21.281Z,14.15
2023-01-20T07:19:23.895Z,14.13
2023-01-20T07:20:26.574Z,14.18
2023-01-20T07:21:29.611Z,14.27
2023-01-20T07:22:31.201Z,15.07
2023-01-20T07:23:34.747Z,14.65
2023-01-20T07:24:36.706Z,14.43
2023-01-20T07:25:39.581Z,14.43
2023-01-20T07:26:42.127Z,15.07
2023-01-20T07:27:46.251Z,15.80
2023-01-20T07:28:48.616Z,16.42
2023-01-20T07:29:52.581Z,15.35
2023-01-20T07:30:54.982Z,16.30
2023-01-20T07:31:57.580Z,14.10
2023-01-20T07:32:59.180Z,16.05
2023-01-20T07:34:01.710Z,16.45
2023-01-20T07:35:03.530Z,15.30
2023-01-20T07:36:07.867Z,15.35
2023-01-20T07:37:10.394Z,14.30
2023-01-20T07:38:11.950Z,14.90
2023-01-20T07:39:15.489Z,13.98
2023-01-20T07:40:18.476Z,13.35
2023-01-20T07:41:20.669Z,14.75
2023-01-20T07:42:23.209Z,13.45
2023-01-20T07:43:24.800Z,14.27
2023-01-20T07:44:27.281Z,13.95
2023-01-20T07:45:30.145Z,13.82
2023-01-20T07:46:33.233Z,14.10
2023-01-20T07:47:34.924Z,13.68
2023-01-20T07:48:37.536Z,13.07
2023-01-20T07:49:40.045Z,13.25
2023-01-20T07:50:41.699Z,14.00
2023-01-20T07:51:44.239Z,13.75
2023-01-20T07:52:45.861Z,14.52
2023-01-20T07:53:51.019Z,14.18
2023-01-20T07:54:52.716Z,13.43
2023-01-20T07:55:57.455Z,14.35
2023-01-20T07:57:00.022Z,14.60
2023-01-20T07:58:02.320Z,15.07
2023-01-20T07:59:05.640Z,14.10
2023-01-20T08:00:12.097Z,14.00
2023-01-20T08:01:17.026Z,15.45
2023-01-20T08:02:19.698Z,14.38
2023-01-20T08:03:21.456Z,13.43
2023-01-20T08:04:24.011Z,13.68
2023-01-20T08:05:25.580Z,13.32
2023-01-20T08:06:28.272Z,13.25
2023-01-20T08:07:29.955Z,13.63
2023-01-20T08:08:33.078Z,13.13
2023-01-20T08:09:34.655Z,13.88
2023-01-20T08:10:37.230Z,14.70
2023-01-20T08:11:39.972Z,14.75
2023-01-20T08:12:42.540Z,14.82
2023-01-20T08:13:44.294Z,13.55
2023-01-20T08:14:46.801Z,14.02
2023-01-20T08:15:48.409Z,14.40
2023-01-20T08:16:52.507Z,13.88
2023-01-20T08:17:55.160Z,14.13
2023-01-20T08:18:57.683Z,14.45
2023-01-20T08:19:59.274Z,14.52
2023-01-20T08:21:06.382Z,14.73
2023-01-20T08:22:09.098Z,14.40
2023-01-20T08:23:10.711Z,15.50
2023-01-20T08:24:13.293Z,16.33
2023-01-20T08:25:15.519Z,15.70
2023-01-20T08:26:19.293Z,15.60
2023-01-20T08:27:22.103Z,15.10
2023-01-20T08:28:23.617Z,15.80
2023-01-20T08:29:26.544Z,13.90
2023-01-20T08:30:29.071Z,14.05
2023-01-20T08:31:30.791Z,13.40
2023-01-20T08:32:34.851Z,14.65
2023-01-20T08:33:37.066Z,14.48
2023-01-20T08:34:39.643Z,14.10
2023-01-20T08:35:42.183Z,13.73
2023-01-20T08:36:44.713Z,14.48
2023-01-20T08:37:46.701Z,14.00
2023-01-20T08:38:50.118Z,14.30
2023-01-20T08:39:51.958Z,14.25
2023-01-20T08:40:54.585Z,14.65
2023-01-20T08:41:57.247Z,14.68
2023-01-20T08:42:59.168Z,13.98
2023-01-20T08:44:04.391Z,13.82
2023-01-20T08:45:07.785Z,13.15
2023-01-20T08:46:12.396Z,13.65
2023-01-20T08:47:14.997Z,13.73
2023-01-20T08:48:19.957Z,13.80
2023-01-20T08:49:23.606Z,14.57
2023-01-20T08:50:25.520Z,14.00
2023-01-20T08:51:31.163Z,15.20
2023-01-20T08:52:34.061Z,14.98
2023-01-20T08:53:36.257Z,13.52
2023-01-20T08:54:38.892Z,15.05
2023-01-20T08:55:41.386Z,13.35
2023-01-20T08:56:45.569Z,13.93
2023-01-20T08:57:48.072Z,14.05
2023-01-20T08:58:50.287Z,14.02
2023-01-20T08:59:52.998Z,14.65
2023-01-20T09:00:55.556Z,14.00
2023-01-20T09:01:58.303Z,14.07
2023-01-20T09:02:59.967Z,14.25
2023-01-20T09:04:07.301Z,15.32
2023-01-20T09:05:10.893Z,13.98
2023-01-20T09:06:14.997Z,13.55
2023-01-20T09:07:18.668Z,14.25
2023-01-20T09:08:20.747Z,14.57
2023-01-20T09:09:24.060Z,14.48
2023-01-20T09:10:25.719Z,14.93
2023-01-20T09:11:28.345Z,15.18
2023-01-20T09:12:31.052Z,14.98
2023-01-20T09:13:32.796Z,14.05
2023-01-20T09:14:35.376Z,14.52
2023-01-20T09:15:37.105Z,15.55
2023-01-20T09:16:40.039Z,14.43
2023-01-20T09:17:42.678Z,14.18
2023-01-20T09:18:44.608Z,15.15
2023-01-20T09:19:48.638Z,15.57
2023-01-20T09:20:53.742Z,17.17
2023-01-20T09:21:57.484Z,18.13
2023-01-20T09:23:02.794Z,18.17
2023-01-20T09:24:06.290Z,15.75
2023-01-20T09:25:11.576Z,14.93
2023-01-20T09:26:29.617Z,15.48
2023-01-20T09:27:37.206Z,14.18
2023-01-20T09:28:39.764Z,14.63
2023-01-20T09:29:42.316Z,14.10
2023-01-20T09:30:45.135Z,13.40
2023-01-20T09:31:58.140Z,14.55
2023-01-20T09:33:01.016Z,14.10
2023-01-20T09:34:03.815Z,14.77
2023-01-20T09:35:11.472Z,14.18
2023-01-20T09:36:14.318Z,14.25
2023-01-20T09:37:36.319Z,14.80
2023-01-20T09:38:58.237Z,13.43
2023-01-20T09:40:18.651Z,15.45
2023-01-20T09:41:54.742Z,11.30
2023-01-20T09:43:26.172Z,14.40
2023-01-20T09:44:44.311Z,14.13
2023-01-20T09:45:55.817Z,13.90
2023-01-20T09:47:21.068Z,14.80
2023-01-20T09:48:53.705Z,14.52
2023-01-20T09:50:49.317Z,14.10
2023-01-20T09:52:19.262Z,14.07
2023-01-20T09:53:35.091Z,14.55
2023-01-20T09:54:44.168Z,14.88
2023-01-20T09:55:50.928Z,14.80
2023-01-20T09:56:57.581Z,15.68
2023-01-20T09:58:11.408Z,14.73
2023-01-20T09:59:20.753Z,13.98
2023-01-20T10:00:25.051Z,15.35
2023-01-20T10:01:32.756Z,15.70
2023-01-20T10:02:37.585Z,14.63
2023-01-20T10:03:48.757Z,14.95
2023-01-20T10:04:54.651Z,15.68
2023-01-20T10:06:03.920Z,14.98
2023-01-20T10:07:13.160Z,15.45
2023-01-20T10:08:20.253Z,14.93
2023-01-20T10:09:33.463Z,15.35
2023-01-20T10:10:42.065Z,15.25
2023-01-20T10:11:48.098Z,15.85
2023-01-20T10:12:55.207Z,14.38
2023-01-20T10:14:09.629Z,15.50
2023-01-20T10:15:17.874Z,15.48
2023-01-20T10:16:28.545Z,15.45
2023-01-20T10:17:39.171Z,11.65
2023-01-20T10:18:47.489Z,11.73
2023-01-20T10:19:56.238Z,14.60
2023-01-20T10:21:02.987Z,16.13
2023-01-20T10:22:11.821Z,15.35
2023-01-20T10:23:21.435Z,16.08
2023-01-20T10:24:28.877Z,14.48
2023-01-20T10:25:39.229Z,15.63
2023-01-20T10:26:47.844Z,11.95
2023-01-20T10:27:55.797Z,14.48
2023-01-20T10:29:01.919Z,14.02
2023-01-20T10:30:10.419Z,13.23
2023-01-20T10:31:15.660Z,14.40
2023-01-20T10:32:29.550Z,14.15
2023-01-20T10:33:36.059Z,14.05
2023-01-20T10:34:44.529Z,14.10
2023-01-20T10:35:51.127Z,14.55
2023-01-20T10:37:03.896Z,14.40
2023-01-20T10:38:19.245Z,13.77
2023-01-20T10:39:31.015Z,13.95
2023-01-20T10:40:39.655Z,13.85
2023-01-20T10:41:47.401Z,15.30
2023-01-20T10:42:58.013Z,15.00
2023-01-20T10:44:01.877Z,15.30
2023-01-20T10:45:09.489Z,15.15
2023-01-20T10:46:23.984Z,14.75
2023-01-20T10:47:43.545Z,14.10
2023-01-20T10:49:06.640Z,14.20
2023-01-20T10:50:24.217Z,14.65
2023-01-20T10:51:40.767Z,13.75
2023-01-20T10:53:04.181Z,14.20
2023-01-20T10:54:23.732Z,13.90
2023-01-20T10:55:41.472Z,13.25
2023-01-20T10:56:53.755Z,13.98
2023-01-20T10:58:04.450Z,13.32
2023-01-20T10:59:11.258Z,9.65
2023-01-20T11:00:25.089Z,13.45
2023-01-20T11:01:30.203Z,13.57
2023-01-20T11:02:35.832Z,14.13
2023-01-20T11:03:42.922Z,14.68
2023-01-20T11:04:47.785Z,14.57
2023-01-20T11:05:53.138Z,13.90
2023-01-20T11:07:03.768Z,13.85
2023-01-20T11:08:16.495Z,10.77
2023-01-20T11:09:28.134Z,14.93
2023-01-20T11:10:36.407Z,14.48
2023-01-20T11:11:43.247Z,14.23
2023-01-20T11:12:54.213Z,14.55
2023-01-20T11:13:59.641Z,14.18
2023-01-20T11:15:03.577Z,13.63
2023-01-20T11:16:15.101Z,14.38
2023-01-20T11:17:22.357Z,13.65
2023-01-20T11:18:28.320Z,14.77
2023-01-20T11:19:46.377Z,14.27
2023-01-20T11:20:50.120Z,13.50
2023-01-20T11:21:53.812Z,14.93
2023-01-20T11:22:56.914Z,15.40
2023-01-20T11:24:01.792Z,13.88
2023-01-20T11:25:06.520Z,14.27
2023-01-20T11:26:19.668Z,13.98
2023-01-20T11:27:25.651Z,14.30
2023-01-20T11:28:32.936Z,15.27
2023-01-20T11:29:43.461Z,14.63
2023-01-20T11:30:51.975Z,11.07
2023-01-20T11:31:56.796Z,13.88
2023-01-20T11:33:11.125Z,14.55
2023-01-20T11:34:25.406Z,14.48
2023-01-20T11:35:28.076Z,15.77
2023-01-20T11:36:29.893Z,14.60
2023-01-20T11:37:40.461Z,13.20
2023-01-20T11:38:44.823Z,11.52
2023-01-20T11:40:01.115Z,13.75
2023-01-20T11:41:04.043Z,14.00
2023-01-20T11:42:17.175Z,12.85
2023-01-20T11:43:29.637Z,13.10
2023-01-20T11:44:31.357Z,13.05
2023-01-20T11:45:36.132Z,13.85
2023-01-20T11:46:38.420Z,13.40
2023-01-20T11:47:41.276Z,12.68
2023-01-20T11:48:46.085Z,13.75
2023-01-20T11:50:20.910Z,13.43
2023-01-20T11:51:26.447Z,13.48
2023-01-20T11:52:28.202Z,13.27
2023-01-20T11:53:32.433Z,13.38
2023-01-20T11:54:37.192Z,14.07
2023-01-20T11:55:47.264Z,15.32
2023-01-20T11:56:54.369Z,14.73
2023-01-20T11:57:59.587Z,14.57
2023-01-20T11:59:05.597Z,15.20
2023-01-20T12:00:31.530Z,14.57
2023-01-20T12:01:52.881Z,14.60
2023-01-20T12:03:00.617Z,14.18
2023-01-20T12:04:24.382Z,14.63
2023-01-20T12:05:36.090Z,15.07
2023-01-20T12:06:48.141Z,14.25
2023-01-20T12:07:53.385Z,14.68
2023-01-20T12:09:01.542Z,15.38
2023-01-20T12:10:13.093Z,14.20
2023-01-20T12:11:19.355Z,15.27
2023-01-20T12:12:30.846Z,14.85
2023-01-20T12:13:59.691Z,15.10
2023-01-20T12:15:06.028Z,14.43
2023-01-20T12:16:12.327Z,15.52
2023-01-20T12:17:27.147Z,14.55
2023-01-20T12:18:35.727Z,14.57
2023-01-20T12:19:51.171Z,14.77
2023-01-20T12:21:00.258Z,14.55
2023-01-20T12:22:12.013Z,14.20
2023-01-20T12:23:25.055Z,14.18
2023-01-20T12:24:52.519Z,14.15
2023-01-20T12:26:00.620Z,14.10
2023-01-20T12:27:03.758Z,14.68
2023-01-20T12:28:14.240Z,15.07
2023-01-20T12:29:22.516Z,11.57
2023-01-20T12:30:44.179Z,16.02
2023-01-20T12:31:49.405Z,14.48
2023-01-20T12:32:51.219Z,14.02
2023-01-20T12:34:00.581Z,14.23
2023-01-20T12:35:11.401Z,14.60
2023-01-20T12:36:37.632Z,13.15
2023-01-20T12:37:47.796Z,12.82
2023-01-20T12:39:16.863Z,12.82
2023-01-20T12:40:33.754Z,13.85
2023-01-20T12:41:54.867Z,13.70
2023-01-20T12:43:32.117Z,13.05
2023-01-20T12:44:42.521Z,12.70
2023-01-20T12:46:10.458Z,13.73
2023-01-20T12:47:25.748Z,13.77
2023-01-20T12:48:44.895Z,13.05
2023-01-20T12:50:04.346Z,13.52
2023-01-20T12:51:20.598Z,14.13
2023-01-20T12:52:46.117Z,13.20
2023-01-20T12:54:04.453Z,13.45
2023-01-20T12:55:22.904Z,14.15
2023-01-20T12:56:37.215Z,12.65
2023-01-20T12:57:50.290Z,13.60
2023-01-20T12:59:04.405Z,14.07
2023-01-20T13:00:24.301Z,13.70
2023-01-20T13:01:43.750Z,13.65
2023-01-20T13:03:22.453Z,13.02
2023-01-20T13:04:53.074Z,11.65
2023-01-20T13:06:28.309Z,11.90
2023-01-20T13:07:49.824Z,11.15
2023-01-20T13:08:58.391Z,9.98
2023-01-20T13:10:16.955Z,8.88
2023-01-20T13:11:29.891Z,10.00
2023-01-20T13:12:46.941Z,9.45
2023-01-20T13:14:07.608Z,9.35
2023-01-20T13:15:20.351Z,8.30
2023-01-20T13:16:33.933Z,9.20
2023-01-20T13:17:43.362Z,9.02
2023-01-20T13:19:03.540Z,7.55
2023-01-20T13:20:17.572Z,8.13
2023-01-20T13:21:21.361Z,8.35
2023-01-20T13:22:25.039Z,7.68
2023-01-20T13:23:30.471Z,8.40
2023-01-20T13:24:32.382Z,8.88
2023-01-20T13:25:35.949Z,8.18
2023-01-20T13:26:39.067Z,9.05
2023-01-20T13:27:44.851Z,8.05
2023-01-20T13:28:54.040Z,8.73
2023-01-20T13:29:59.148Z,8.23
2023-01-20T13:31:23.006Z,8.38
2023-01-20T13:32:38.299Z,8.25
2023-01-20T13:33:42.935Z,8.32
2023-01-20T13:34:44.548Z,7.68
2023-01-20T13:35:51.384Z,8.10
2023-01-20T13:37:24.436Z,7.60
2023-01-20T13:38:31.007Z,7.68
2023-01-20T13:39:40.975Z,8.30
2023-01-20T13:40:55.471Z,8.15
2023-01-20T13:41:57.185Z,8.85
2023-01-20T13:42:59.743Z,8.38
2023-01-20T13:44:22.452Z,8.77
2023-01-20T13:45:27.448Z,9.82
2023-01-20T13:46:47.445Z,9.32
2023-01-20T13:47:54.333Z,9.07
2023-01-20T13:49:25.696Z,8.40
2023-01-20T13:50:31.837Z,9.13
2023-01-20T13:51:45.054Z,9.43
2023-01-20T13:53:13.326Z,10.05
2023-01-20T13:54:44.036Z,10.20
2023-01-20T13:55:58.037Z,9.50
2023-01-20T13:57:33.879Z,9.95
2023-01-20T13:58:36.404Z,9.80
2023-01-20T13:59:37.961Z,10.07
2023-01-20T14:00:40.706Z,9.65
2023-01-20T14:01:43.400Z,10.52
2023-01-20T14:02:46.821Z,10.85
2023-01-20T14:04:04.550Z,10.50
2023-01-20T14:05:20.840Z,10.65
2023-01-20T14:06:26.088Z,10.48
2023-01-20T14:07:30.558Z,10.75
2023-01-20T14:08:42.525Z,10.98
2023-01-20T14:09:52.187Z,11.48
2023-01-20T14:11:05.939Z,12.05
2023-01-20T14:12:08.618Z,11.57
2023-01-20T14:13:11.472Z,11.43
2023-01-20T14:14:18.594Z,11.05
2023-01-20T14:15:26.786Z,11.20
2023-01-20T14:16:31.312Z,11.27
2023-01-20T14:17:32.972Z,11.43
2023-01-20T14:18:35.626Z,12.05
2023-01-20T14:19:39.113Z,12.77